You are not logged in, Click here to log in
Honiara International Airport / AGGH Honiara
ICAO: AGGH Country: Honiara
Latitude: -9.428 Longitude: 160.055
Total Arrivals: 1 Total Departures: 1
Latest Arrival: FS02 (PTRO-AGGH)CHANG SHENG. HSIUNG Latest Departure: FS03 (AGGH-NGFU)CHANG SHENG. HSIUNG
Scenery:
METAR : AGGH 190300Z 32013KT 9999 FEW020 FEW021CB 33/25 Q1002

Honiara International Airport

You are accessing this site from IP address 35.175.113.29. Virtual Airline. CMS by phpVMS.Website designed by Zumeweb and edited by Theo Bearman.
There is 0 User(s) Online: | and 8 Guest(s) Online.
All information on this site is for fight simulation purposes only. This site is for flight logging for pilots of Virtual Airline&模擬飛行論壇 FlySim only.